createdAt,value
2023-04-12T00:00:17.840Z,97293.63
2023-04-12T00:02:46.878Z,97290.53
2023-04-12T00:05:14.752Z,97289.56
2023-04-12T00:07:46.840Z,97291.03
2023-04-12T00:10:14.461Z,97289.56
2023-04-12T00:12:42.021Z,97292.88
2023-04-12T00:15:10.209Z,97287.13
2023-04-12T00:17:37.724Z,97292.03
2023-04-12T00:20:12.287Z,97288.88
2023-04-12T00:22:39.793Z,97292.38
2023-04-12T00:25:07.626Z,97285.94
2023-04-12T00:27:35.237Z,97284.81
2023-04-12T00:30:05.484Z,97285.50
2023-04-12T00:32:33.067Z,97286.41
2023-04-12T00:35:00.725Z,97279.34
2023-04-12T00:37:29.636Z,97268.31
2023-04-12T00:39:57.188Z,97273.25
2023-04-12T00:42:25.699Z,97263.63
2023-04-12T00:44:53.670Z,97249.75
2023-04-12T00:47:21.818Z,97251.72
2023-04-12T00:49:49.464Z,97239.53
2023-04-12T00:52:18.086Z,97243.72
2023-04-12T00:54:47.013Z,97248.63
2023-04-12T00:57:15.560Z,97255.50
2023-04-12T00:59:43.151Z,97256.63
2023-04-12T01:02:10.890Z,97271.22
2023-04-12T01:04:39.659Z,97268.25
2023-04-12T01:07:10.149Z,97268.31
2023-04-12T01:09:40.556Z,97265.75
2023-04-12T01:12:14.377Z,97249.13
2023-04-12T01:14:45.511Z,97249.53
2023-04-12T01:17:14.579Z,97242.56
2023-04-12T01:19:53.774Z,97240.66
2023-04-12T01:22:38.521Z,97248.34
2023-04-12T01:25:16.335Z,97251.13
2023-04-12T01:27:46.427Z,97248.41
2023-04-12T01:30:14.993Z,97234.81
2023-04-12T01:32:42.577Z,97234.75
2023-04-12T01:35:10.441Z,97237.56
2023-04-12T01:37:37.966Z,97229.72
2023-04-12T01:40:07.876Z,97225.34
2023-04-12T01:42:35.408Z,97220.06
2023-04-12T01:45:04.974Z,97223.34
2023-04-12T01:47:32.661Z,97224.03
2023-04-12T01:50:00.832Z,97219.88
2023-04-12T01:52:28.311Z,97225.94
2023-04-12T01:54:56.044Z,97223.63
2023-04-12T01:57:23.588Z,97218.59
2023-04-12T01:59:51.201Z,97220.78
2023-04-12T02:02:20.266Z,97218.31
2023-04-12T02:04:48.015Z,97217.47
2023-04-12T02:07:15.846Z,97212.31
2023-04-12T02:09:43.394Z,97217.22
2023-04-12T02:12:11.102Z,97205.47
2023-04-12T02:14:38.739Z,97202.44
2023-04-12T02:17:08.063Z,97208.72
2023-04-12T02:19:37.458Z,97200.81
2023-04-12T02:22:05.775Z,97203.41
2023-04-12T02:24:33.659Z,97195.50
2023-04-12T02:27:01.421Z,97198.50
2023-04-12T02:29:29.582Z,97195.34
2023-04-12T02:31:57.468Z,97182.78
2023-04-12T02:34:31.310Z,97180.72
2023-04-12T02:37:07.976Z,97170.19
2023-04-12T02:39:35.979Z,97178.66
2023-04-12T02:42:04.229Z,97169.91
2023-04-12T02:44:32.422Z,97168.00
2023-04-12T02:47:12.807Z,97167.59
2023-04-12T02:49:43.323Z,97165.81
2023-04-12T02:52:14.336Z,97166.63
2023-04-12T02:54:56.628Z,97171.59
2023-04-12T02:57:24.871Z,97161.88
2023-04-12T02:59:54.051Z,97164.47
2023-04-12T03:02:38.837Z,97175.69
2023-04-12T03:05:09.796Z,97163.91
2023-04-12T03:07:44.456Z,97158.72
2023-04-12T03:10:12.780Z,97151.91
2023-04-12T03:12:56.769Z,97147.09
2023-04-12T03:15:33.334Z,97143.53
2023-04-12T03:18:02.049Z,97133.00
2023-04-12T03:20:33.554Z,97140.13
2023-04-12T03:23:08.740Z,97140.41
2023-04-12T03:25:39.457Z,97137.38
2023-04-12T03:28:25.036Z,97131.13
2023-04-12T03:30:55.268Z,97136.84
2023-04-12T03:33:25.930Z,97133.16
2023-04-12T03:35:58.682Z,97136.31
2023-04-12T03:38:29.145Z,97133.00
2023-04-12T03:40:57.654Z,97138.78
2023-04-12T03:43:36.120Z,97134.13
2023-04-12T03:46:07.876Z,97126.44
2023-04-12T03:48:36.241Z,97124.41
2023-04-12T03:51:08.677Z,97128.94
2023-04-12T03:53:41.136Z,97125.38
2023-04-12T03:56:12.834Z,97121.25
2023-04-12T03:58:40.941Z,97120.31
2023-04-12T04:01:10.164Z,97123.47
2023-04-12T04:03:38.106Z,97110.59
2023-04-12T04:06:17.459Z,97103.22
2023-04-12T04:08:47.044Z,97106.09
2023-04-12T04:11:16.322Z,97101.44
2023-04-12T04:13:49.047Z,97099.66
2023-04-12T04:16:20.449Z,97086.53
2023-04-12T04:18:50.141Z,97072.56
2023-04-12T04:21:22.357Z,97081.06
2023-04-12T04:23:58.679Z,97081.88
2023-04-12T04:26:33.323Z,97081.03
2023-04-12T04:29:29.144Z,97074.22
2023-04-12T04:31:58.524Z,97084.34
2023-04-12T04:34:26.943Z,97083.28
2023-04-12T04:37:03.494Z,97075.06
2023-04-12T04:39:33.045Z,97077.41
2023-04-12T04:42:00.965Z,97074.22
2023-04-12T04:44:39.285Z,97070.41
2023-04-12T04:47:10.997Z,97071.22
2023-04-12T04:49:38.757Z,97072.56
2023-04-12T04:52:19.807Z,97076.50
2023-04-12T04:54:50.777Z,97082.38
2023-04-12T04:57:21.143Z,97082.09
2023-04-12T04:59:49.124Z,97081.41
2023-04-12T05:02:18.443Z,97083.16
2023-04-12T05:04:46.334Z,97087.19
2023-04-12T05:07:17.602Z,97093.72
2023-04-12T05:09:56.705Z,97104.50
2023-04-12T05:12:24.344Z,97092.88
2023-04-12T05:15:08.596Z,97094.31
2023-04-12T05:17:39.535Z,97094.72
2023-04-12T05:20:08.209Z,97095.22
2023-04-12T05:22:36.322Z,97091.88
2023-04-12T05:25:06.351Z,97094.47
2023-04-12T05:27:38.935Z,97090.66
2023-04-12T05:30:09.132Z,97090.59
2023-04-12T05:32:37.505Z,97094.38
2023-04-12T05:35:06.198Z,97092.00
2023-04-12T05:37:37.438Z,97085.97
2023-04-12T05:40:07.373Z,97084.72
2023-04-12T05:42:34.985Z,97087.03
2023-04-12T05:45:02.572Z,97090.38
2023-04-12T05:47:31.817Z,97086.44
2023-04-12T05:49:59.493Z,97074.06
2023-04-12T05:52:27.896Z,97082.94
2023-04-12T05:54:56.129Z,97082.84
2023-04-12T05:57:25.212Z,97064.63
2023-04-12T05:59:52.982Z,97055.75
2023-04-12T06:02:20.610Z,97052.59
2023-04-12T06:04:50.977Z,97044.84
2023-04-12T06:07:20.063Z,97045.28
2023-04-12T06:09:48.213Z,97052.84
2023-04-12T06:12:17.352Z,97048.06
2023-04-12T06:14:46.769Z,97035.72
2023-04-12T06:17:14.478Z,97044.25
2023-04-12T06:19:42.810Z,97030.97
2023-04-12T06:22:10.691Z,97031.00
2023-04-12T06:24:40.168Z,97032.09
2023-04-12T06:27:09.406Z,97032.47
2023-04-12T06:29:38.770Z,97011.91
2023-04-12T06:32:07.881Z,96999.44
2023-04-12T06:34:36.252Z,96994.88
2023-04-12T06:37:08.480Z,96985.13
2023-04-12T06:39:35.981Z,96982.34
2023-04-12T06:42:03.623Z,96969.78
2023-04-12T06:44:33.218Z,96958.31
2023-04-12T06:47:00.956Z,96928.91
2023-04-12T06:49:29.897Z,96912.09
2023-04-12T06:51:57.417Z,96907.66
2023-04-12T06:54:25.285Z,96894.41
2023-04-12T06:56:52.870Z,96873.66
2023-04-12T06:59:20.527Z,96876.53
2023-04-12T07:01:48.206Z,96865.56
2023-04-12T07:04:16.869Z,96843.78
2023-04-12T07:06:45.947Z,96837.34
2023-04-12T07:09:13.626Z,96819.88
2023-04-12T07:11:41.206Z,96809.03
2023-04-12T07:14:08.917Z,96803.19
2023-04-12T07:16:36.532Z,96792.63
2023-04-12T07:19:04.085Z,96769.81
2023-04-12T07:21:31.746Z,96754.41
2023-04-12T07:24:01.560Z,96737.59
2023-04-12T07:26:30.207Z,96727.00
2023-04-12T07:28:57.924Z,96700.78
2023-04-12T07:31:25.673Z,96702.97
2023-04-12T07:33:55.544Z,96683.69
2023-04-12T07:36:23.128Z,96674.53
2023-04-12T07:38:55.611Z,96647.31
2023-04-12T07:41:24.999Z,96611.47
2023-04-12T07:43:55.570Z,96599.28
2023-04-12T07:46:23.200Z,96590.59
2023-04-12T07:48:50.783Z,96578.38
2023-04-12T07:51:18.572Z,96571.38
2023-04-12T07:53:48.374Z,96555.78
2023-04-12T07:56:16.423Z,96553.78
2023-04-12T07:58:45.432Z,96547.09
2023-04-12T08:01:14.032Z,96542.03
2023-04-12T08:03:44.563Z,96542.00
2023-04-12T08:06:12.368Z,96533.09
2023-04-12T08:08:40.080Z,96531.38
2023-04-12T08:11:07.752Z,96531.84
2023-04-12T08:13:35.497Z,96523.88
2023-04-12T08:16:04.589Z,96520.00
2023-04-12T08:18:32.157Z,96509.47
2023-04-12T08:20:59.671Z,96507.06
2023-04-12T08:23:27.234Z,96502.59
2023-04-12T08:25:59.463Z,96499.72
2023-04-12T08:28:28.659Z,96500.91
2023-04-12T08:30:56.316Z,96506.59
2023-04-12T08:33:25.216Z,96501.94
2023-04-12T08:35:53.625Z,96499.91
2023-04-12T08:38:30.619Z,96497.47
2023-04-12T08:41:05.438Z,96491.78
2023-04-12T08:43:33.504Z,96496.44
2023-04-12T08:46:01.191Z,96476.81
2023-04-12T08:48:30.176Z,96484.31
2023-04-12T08:50:57.708Z,96465.88
2023-04-12T08:53:25.516Z,96467.50
2023-04-12T08:55:53.085Z,96464.88
2023-04-12T08:58:20.826Z,96469.75
2023-04-12T09:00:48.404Z,96464.28
2023-04-12T09:03:16.116Z,96453.34
2023-04-12T09:05:45.459Z,96459.34
2023-04-12T09:08:13.303Z,96450.44
2023-04-12T09:10:42.708Z,96439.41
2023-04-12T09:13:10.305Z,96439.88
2023-04-12T09:15:37.878Z,96428.56
2023-04-12T09:18:06.166Z,96430.50
2023-04-12T09:20:35.722Z,96434.13
2023-04-12T09:23:13.359Z,96432.22
2023-04-12T09:25:41.558Z,96420.91
2023-04-12T09:28:21.915Z,96426.19
2023-04-12T09:30:51.785Z,96405.13
2023-04-12T09:33:23.995Z,96420.53
2023-04-12T09:35:51.766Z,96407.53
2023-04-12T09:38:20.900Z,96393.22
2023-04-12T09:40:48.764Z,96384.72
2023-04-12T09:43:16.661Z,96373.13
2023-04-12T09:45:44.483Z,96379.50
2023-04-12T09:48:19.418Z,96360.66
2023-04-12T09:50:46.963Z,96351.97
2023-04-12T09:53:19.628Z,96357.44
2023-04-12T09:55:48.773Z,96343.91
2023-04-12T09:58:16.781Z,96344.63
2023-04-12T10:00:44.342Z,96337.03
2023-04-12T10:03:12.533Z,96340.19
2023-04-12T10:05:41.282Z,96343.50
2023-04-12T10:08:08.938Z,96339.22
2023-04-12T10:10:36.734Z,96325.75
2023-04-12T10:13:05.928Z,96325.72
2023-04-12T10:15:33.576Z,96328.88
2023-04-12T10:18:04.939Z,96323.63
2023-04-12T10:20:32.588Z,96316.47
2023-04-12T10:23:03.192Z,96313.44
2023-04-12T10:25:31.796Z,96309.44
2023-04-12T10:27:59.970Z,96302.13
2023-04-12T10:30:29.285Z,96296.09
2023-04-12T10:33:12.658Z,96287.03
2023-04-12T10:35:55.555Z,96276.59
2023-04-12T10:38:25.061Z,96261.06
2023-04-12T10:41:09.468Z,96256.16
2023-04-12T10:43:37.001Z,96254.47
2023-04-12T10:46:06.909Z,96258.78
2023-04-12T10:48:34.846Z,96253.56
2023-04-12T10:51:26.825Z,96254.94
2023-04-12T10:54:23.420Z,96254.59
2023-04-12T10:56:51.248Z,96242.00
2023-04-12T10:59:56.029Z,96229.41
2023-04-12T11:02:25.231Z,96232.25
2023-04-12T11:05:10.429Z,96222.22
2023-04-12T11:08:04.686Z,96225.50
2023-04-12T11:10:50.714Z,96216.78
2023-04-12T11:13:26.411Z,96216.38
2023-04-12T11:15:54.934Z,96216.75
2023-04-12T11:18:24.154Z,96208.34
2023-04-12T11:20:52.102Z,96200.91
2023-04-12T11:23:19.876Z,96192.41
2023-04-12T11:25:50.595Z,96196.53
2023-04-12T11:28:27.973Z,96195.63
2023-04-12T11:30:56.559Z,96196.75
2023-04-12T11:33:35.443Z,96196.31
2023-04-12T11:36:04.523Z,96202.47
2023-04-12T11:38:32.107Z,96199.44
2023-04-12T11:40:59.690Z,96204.81
2023-04-12T11:43:27.262Z,96200.19
2023-04-12T11:45:59.557Z,96180.19
2023-04-12T11:48:27.260Z,96181.41
2023-04-12T11:51:07.737Z,96177.34
2023-04-12T11:53:38.362Z,96185.00
2023-04-12T11:56:06.236Z,96183.47
2023-04-12T11:58:33.799Z,96188.19
2023-04-12T12:01:01.521Z,96186.56
2023-04-12T12:03:29.223Z,96189.34
2023-04-12T12:05:58.405Z,96197.94
2023-04-12T12:08:26.308Z,96192.94
2023-04-12T12:11:07.197Z,96194.53
2023-04-12T12:13:46.347Z,96202.63
2023-04-12T12:16:14.430Z,96209.34
2023-04-12T12:18:42.294Z,96200.06
2023-04-12T12:21:11.357Z,96194.38
2023-04-12T12:23:39.064Z,96204.50
2023-04-12T12:26:18.366Z,96202.84
2023-04-12T12:28:49.933Z,96208.72
2023-04-12T12:31:19.980Z,96211.75
2023-04-12T12:33:47.911Z,96216.63
2023-04-12T12:36:20.972Z,96213.59
2023-04-12T12:38:51.400Z,96214.97
2023-04-12T12:41:19.109Z,96220.63
2023-04-12T12:43:47.049Z,96218.16
2023-04-12T12:46:14.963Z,96222.28
2023-04-12T12:48:42.912Z,96212.75
2023-04-12T12:51:10.620Z,96218.41
2023-04-12T12:53:39.817Z,96219.06
2023-04-12T12:56:07.772Z,96215.59
2023-04-12T12:58:35.394Z,96210.78
2023-04-12T13:01:02.924Z,96205.94
2023-04-12T13:03:30.698Z,96189.59
2023-04-12T13:05:58.515Z,96192.81
2023-04-12T13:08:26.129Z,96186.75
2023-04-12T13:10:55.778Z,96184.50
2023-04-12T13:13:23.367Z,96189.56
2023-04-12T13:15:52.871Z,96180.66
2023-04-12T13:18:20.539Z,96170.78
2023-04-12T13:20:48.088Z,96177.47
2023-04-12T13:23:15.756Z,96190.56
2023-04-12T13:25:43.345Z,96179.06
2023-04-12T13:28:12.708Z,96179.47
2023-04-12T13:30:40.345Z,96167.34
2023-04-12T13:33:09.127Z,96166.09
2023-04-12T13:35:36.678Z,96172.56
2023-04-12T13:38:04.202Z,96164.91
2023-04-12T13:40:31.861Z,96167.75
2023-04-12T13:42:59.462Z,96157.63
2023-04-12T13:45:28.336Z,96158.00
2023-04-12T13:47:56.441Z,96148.72
2023-04-12T13:50:27.374Z,96140.88
2023-04-12T13:52:54.925Z,96127.91
2023-04-12T13:55:22.656Z,96131.78
2023-04-12T13:57:50.314Z,96127.09
2023-04-12T14:00:18.555Z,96134.19
2023-04-12T14:02:47.624Z,96135.38
2023-04-12T14:05:15.296Z,96130.72
2023-04-12T14:07:42.876Z,96130.06
2023-04-12T14:10:10.973Z,96125.59
2023-04-12T14:12:38.653Z,96124.84
2023-04-12T14:15:06.583Z,96113.72
2023-04-12T14:17:34.199Z,96110.28
2023-04-12T14:20:05.665Z,96111.41
2023-04-12T14:22:33.273Z,96106.16
2023-04-12T14:25:00.858Z,96100.84
2023-04-12T14:27:28.478Z,96114.63
2023-04-12T14:29:56.745Z,96124.22
2023-04-12T14:32:24.341Z,96122.31
2023-04-12T14:34:51.976Z,96123.09
2023-04-12T14:37:21.409Z,96109.81
2023-04-12T14:39:48.909Z,96114.69
2023-04-12T14:42:16.573Z,96114.69
2023-04-12T14:44:44.335Z,96110.84
2023-04-12T14:47:11.954Z,96106.22
2023-04-12T14:49:39.542Z,96117.94
2023-04-12T14:52:08.088Z,96125.84
2023-04-12T14:54:37.006Z,96118.28
2023-04-12T14:57:05.100Z,96127.81
2023-04-12T14:59:32.746Z,96110.63
2023-04-12T15:02:00.574Z,96115.06
2023-04-12T15:04:28.296Z,96110.25
2023-04-12T15:06:56.078Z,96109.00
2023-04-12T15:09:24.195Z,96111.81
2023-04-12T15:11:56.222Z,96104.13
2023-04-12T15:14:23.779Z,96107.94
2023-04-12T15:16:51.414Z,96113.41
2023-04-12T15:19:22.740Z,96110.38
2023-04-12T15:21:51.453Z,96109.38
2023-04-12T15:24:19.374Z,96111.56
2023-04-12T15:26:48.682Z,96106.31
2023-04-12T15:29:20.211Z,96094.00
2023-04-12T15:31:47.889Z,96082.63
2023-04-12T15:34:15.630Z,96084.69
2023-04-12T15:36:44.392Z,96082.06
2023-04-12T15:39:12.575Z,96073.38
2023-04-12T15:41:40.264Z,96069.34
2023-04-12T15:44:08.332Z,96062.88
2023-04-12T15:46:37.218Z,96072.16
2023-04-12T15:49:05.542Z,96060.66
2023-04-12T15:51:33.339Z,96056.38
2023-04-12T15:54:01.026Z,96053.94
2023-04-12T15:56:29.770Z,96052.31
2023-04-12T15:58:57.916Z,96045.19
2023-04-12T16:01:25.805Z,96034.25
2023-04-12T16:03:55.584Z,96033.25
2023-04-12T16:06:24.404Z,96032.47
2023-04-12T16:08:52.535Z,96028.78
2023-04-12T16:11:20.593Z,96014.16
2023-04-12T16:13:49.116Z,96024.56
2023-04-12T16:16:17.815Z,96008.88
2023-04-12T16:18:45.596Z,96011.09
2023-04-12T16:21:16.735Z,95999.38
2023-04-12T16:23:44.436Z,96004.41
2023-04-12T16:26:12.483Z,96010.25
2023-04-12T16:28:42.860Z,96006.34
2023-04-12T16:31:10.574Z,96001.16
2023-04-12T16:33:38.370Z,96000.00
2023-04-12T16:36:06.169Z,95989.19
2023-04-12T16:38:35.029Z,95979.97
2023-04-12T16:41:02.766Z,95978.28
2023-04-12T16:43:30.288Z,95993.91
2023-04-12T16:45:57.846Z,95988.56
2023-04-12T16:48:26.157Z,95983.13
2023-04-12T16:50:53.708Z,95977.09
2023-04-12T16:53:22.232Z,95982.72
2023-04-12T16:55:51.423Z,95990.44
2023-04-12T16:58:19.054Z,95986.91
2023-04-12T17:00:46.607Z,95991.84
2023-04-12T17:03:14.392Z,95977.28
2023-04-12T17:05:42.437Z,95977.41
2023-04-12T17:08:09.975Z,95985.25
2023-04-12T17:10:37.727Z,95982.09
2023-04-12T17:13:06.667Z,95971.88
2023-04-12T17:15:34.340Z,95977.53
2023-04-12T17:18:02.340Z,95966.19
2023-04-12T17:20:30.472Z,95959.28
2023-04-12T17:22:58.758Z,95955.00
2023-04-12T17:25:29.270Z,95963.09
2023-04-12T17:27:56.902Z,95963.56
2023-04-12T17:30:26.564Z,95966.56
2023-04-12T17:32:54.263Z,95971.72
2023-04-12T17:35:22.116Z,95971.47
2023-04-12T17:37:49.601Z,95973.06
2023-04-12T17:40:17.392Z,95974.59
2023-04-12T17:42:44.987Z,95978.00
2023-04-12T17:45:14.402Z,95987.44
2023-04-12T17:47:43.839Z,95971.38
2023-04-12T17:50:11.760Z,95980.69
2023-04-12T17:52:39.455Z,95980.63
2023-04-12T17:55:09.295Z,95973.91
2023-04-12T17:57:37.104Z,95989.88
2023-04-12T18:00:05.608Z,95991.88
2023-04-12T18:02:39.981Z,96000.41
2023-04-12T18:05:10.076Z,96004.06
2023-04-12T18:07:39.810Z,96011.50
2023-04-12T18:10:08.245Z,96006.03
2023-04-12T18:12:35.804Z,96000.81
2023-04-12T18:15:03.881Z,95995.19
2023-04-12T18:17:31.779Z,95987.69
2023-04-12T18:20:01.879Z,95999.88
2023-04-12T18:22:31.824Z,96000.91
2023-04-12T18:24:59.675Z,96001.50
2023-04-12T18:27:27.166Z,95997.63
2023-04-12T18:29:54.679Z,95991.56
2023-04-12T18:32:22.372Z,95997.16
2023-04-12T18:34:49.939Z,95998.19
2023-04-12T18:37:18.438Z,96003.44
2023-04-12T18:39:47.328Z,95998.22
2023-04-12T18:42:14.901Z,96002.34
2023-04-12T18:44:43.205Z,96004.50
2023-04-12T18:47:10.835Z,96007.72
2023-04-12T18:49:38.514Z,96011.34
2023-04-12T18:52:06.054Z,96008.88
2023-04-12T18:54:33.670Z,95999.19
2023-04-12T18:57:03.507Z,95986.72
2023-04-12T18:59:31.146Z,95980.78
2023-04-12T19:01:58.972Z,95963.59
2023-04-12T19:04:26.828Z,95961.97
2023-04-12T19:06:54.362Z,95959.53
2023-04-12T19:09:22.075Z,95949.84
2023-04-12T19:11:49.744Z,95938.22
2023-04-12T19:14:18.759Z,95949.09
2023-04-12T19:16:53.866Z,95959.25
2023-04-12T19:19:21.491Z,95972.56
2023-04-12T19:21:49.003Z,95983.94
2023-04-12T19:24:16.619Z,95971.91
2023-04-12T19:26:47.196Z,95979.84
2023-04-12T19:29:15.965Z,95985.03
2023-04-12T19:31:47.309Z,95991.59
2023-04-12T19:34:17.816Z,95991.56
2023-04-12T19:36:45.821Z,95990.72
2023-04-12T19:39:13.499Z,95984.69
2023-04-12T19:41:41.018Z,95974.94
2023-04-12T19:44:08.782Z,95973.59
2023-04-12T19:46:38.687Z,95967.63
2023-04-12T19:49:08.519Z,95961.19
2023-04-12T19:51:36.526Z,95970.78
2023-04-12T19:54:04.235Z,95957.00
2023-04-12T19:56:31.802Z,95963.97
2023-04-12T19:59:00.002Z,95969.66
2023-04-12T20:01:28.049Z,95969.56
2023-04-12T20:03:55.878Z,95979.53
2023-04-12T20:06:28.806Z,95968.03
2023-04-12T20:08:56.675Z,95965.63
2023-04-12T20:11:24.427Z,95970.50
2023-04-12T20:13:52.298Z,95971.56
2023-04-12T20:16:19.957Z,95966.88
2023-04-12T20:18:48.110Z,95972.00
2023-04-12T20:21:15.966Z,95975.00
2023-04-12T20:23:45.294Z,95989.53
2023-04-12T20:26:13.307Z,95989.78
2023-04-12T20:28:41.408Z,95981.56
2023-04-12T20:31:08.996Z,95977.38
2023-04-12T20:33:36.547Z,95996.91
2023-04-12T20:36:04.106Z,95997.94
2023-04-12T20:38:31.777Z,95996.91
2023-04-12T20:41:00.698Z,95992.75
2023-04-12T20:43:28.349Z,95998.03
2023-04-12T20:45:56.040Z,95997.19
2023-04-12T20:48:24.774Z,95998.19
2023-04-12T20:50:52.394Z,96003.91
2023-04-12T20:53:19.882Z,96005.34
2023-04-12T20:55:47.679Z,96022.38
2023-04-12T20:58:17.642Z,96019.59
2023-04-12T21:00:46.757Z,96020.38
2023-04-12T21:03:14.349Z,96020.78
2023-04-12T21:05:42.002Z,96018.22
2023-04-12T21:08:10.173Z,96025.63
2023-04-12T21:10:37.916Z,96032.13
2023-04-12T21:13:06.237Z,96019.41
2023-04-12T21:15:35.417Z,96028.97
2023-04-12T21:18:04.403Z,96020.66
2023-04-12T21:20:32.155Z,96024.44
2023-04-12T21:22:59.750Z,96017.63
2023-04-12T21:25:27.333Z,96010.00
2023-04-12T21:27:54.864Z,96039.13
2023-04-12T21:30:22.484Z,96062.13
2023-04-12T21:32:53.539Z,96075.91
2023-04-12T21:35:22.430Z,96061.03
2023-04-12T21:37:50.241Z,96059.16
2023-04-12T21:40:17.977Z,96075.13
2023-04-12T21:42:45.571Z,96075.59
2023-04-12T21:45:14.322Z,96091.31
2023-04-12T21:47:42.295Z,96099.22
2023-04-12T21:50:11.983Z,96103.25
2023-04-12T21:52:40.134Z,96107.91
2023-04-12T21:55:08.026Z,96106.31
2023-04-12T21:57:35.924Z,96108.72
2023-04-12T22:00:05.712Z,96128.75
2023-04-12T22:02:39.237Z,96137.81
2023-04-12T22:05:07.561Z,96146.34
2023-04-12T22:07:40.836Z,96154.41
2023-04-12T22:10:09.216Z,96158.06
2023-04-12T22:12:37.436Z,96160.09
2023-04-12T22:15:05.380Z,96163.91
2023-04-12T22:17:33.406Z,96170.19
2023-04-12T22:20:01.029Z,96178.25
2023-04-12T22:22:29.137Z,96190.78
2023-04-12T22:24:58.032Z,96210.19
2023-04-12T22:27:26.511Z,96208.34
2023-04-12T22:29:54.167Z,96215.44
2023-04-12T22:32:21.982Z,96221.28
2023-04-12T22:34:57.969Z,96232.81
2023-04-12T22:37:33.553Z,96235.81
2023-04-12T22:40:02.704Z,96255.78
2023-04-12T22:42:30.338Z,96261.88
2023-04-12T22:44:58.966Z,96271.34
2023-04-12T22:47:26.733Z,96280.25
2023-04-12T22:50:01.522Z,96284.09
2023-04-12T22:52:30.697Z,96290.59
2023-04-12T22:54:58.302Z,96304.34
2023-04-12T22:57:27.475Z,96292.63
2023-04-12T22:59:55.043Z,96299.84
2023-04-12T23:02:22.632Z,96314.66
2023-04-12T23:04:50.306Z,96315.41
2023-04-12T23:07:17.865Z,96306.09
2023-04-12T23:09:46.153Z,96311.91
2023-04-12T23:12:13.713Z,96329.31
2023-04-12T23:14:42.595Z,96323.88
2023-04-12T23:17:10.181Z,96329.97
2023-04-12T23:19:37.744Z,96334.63
2023-04-12T23:22:06.078Z,96329.13
2023-04-12T23:24:34.348Z,96345.50
2023-04-12T23:27:03.011Z,96355.38
2023-04-12T23:29:30.568Z,96350.22
2023-04-12T23:31:59.675Z,96338.03
2023-04-12T23:34:27.281Z,96347.75
2023-04-12T23:36:55.108Z,96351.44
2023-04-12T23:39:22.812Z,96364.44
2023-04-12T23:41:51.029Z,96369.97
2023-04-12T23:44:18.881Z,96379.63
2023-04-12T23:46:46.414Z,96385.34
2023-04-12T23:49:15.572Z,96381.91
2023-04-12T23:51:43.172Z,96393.59
2023-04-12T23:54:10.742Z,96395.16
2023-04-12T23:56:38.238Z,96403.25
2023-04-12T23:59:06.175Z,96412.34
